Terminal Aerodrome Forecast
Issued by NWS Billings, MT

Home | Current Version | Previous Version | Text Only | Print | Product List | Glossary Off
Versions: 1 2 3 4 5 6 7 8 9 10 11 12 13 14 15

000
FTUS45 KBYZ 301131
TAFMLS
TAF
KMLS 301131Z 3012/0112 23008KT P6SM SCT100
     FM302000 28009KT P6SM FEW150
     FM010300 14008KT P6SM FEW150=

USA.gov is the U.S. government's official web portal to all federal, state and local government web resources and services.